sensor_id;sensor_type;location;lat;lon;timestamp;temperature;humidity
5086;DHT22;4715;51.660;7.082;2023-10-19T00:02:01;11.50;99.90
5086;DHT22;4715;51.660;7.082;2023-10-19T00:04:22;11.50;99.90
5086;DHT22;4715;51.660;7.082;2023-10-19T00:06:44;11.60;99.90
5086;DHT22;4715;51.660;7.082;2023-10-19T00:09:07;11.60;99.90
5086;DHT22;4715;51.660;7.082;2023-10-19T00:11:31;11.60;99.90
5086;DHT22;4715;51.660;7.082;2023-10-19T00:13:56;11.60;99.90
5086;DHT22;4715;51.660;7.082;2023-10-19T00:16:18;11.60;99.90
5086;DHT22;4715;51.660;7.082;2023-10-19T00:18:43;11.60;99.90
5086;DHT22;4715;51.660;7.082;2023-10-19T00:21:04;11.60;99.90
5086;DHT22;4715;51.660;7.082;2023-10-19T00:23:31;11.60;99.90
5086;DHT22;4715;51.660;7.082;2023-10-19T00:25:53;11.60;99.90
5086;DHT22;4715;51.660;7.082;2023-10-19T00:28:16;11.70;99.90
5086;DHT22;4715;51.660;7.082;2023-10-19T00:30:38;11.70;99.90
5086;DHT22;4715;51.660;7.082;2023-10-19T00:33:03;11.70;99.90
5086;DHT22;4715;51.660;7.082;2023-10-19T00:35:26;11.70;99.90
5086;DHT22;4715;51.660;7.082;2023-10-19T00:37:56;11.70;99.90
5086;DHT22;4715;51.660;7.082;2023-10-19T00:40:40;11.70;99.90
5086;DHT22;4715;51.660;7.082;2023-10-19T00:43:12;11.70;99.90
5086;DHT22;4715;51.660;7.082;2023-10-19T00:45:38;11.70;99.90
5086;DHT22;4715;51.660;7.082;2023-10-19T00:48:01;11.70;99.90
5086;DHT22;4715;51.660;7.082;2023-10-19T00:50:25;11.70;99.90
5086;DHT22;4715;51.660;7.082;2023-10-19T00:52:48;11.70;99.90
5086;DHT22;4715;51.660;7.082;2023-10-19T00:55:11;11.80;99.90
5086;DHT22;4715;51.660;7.082;2023-10-19T00:57:39;11.80;99.90
5086;DHT22;4715;51.660;7.082;2023-10-19T01:00:08;11.80;99.90
5086;DHT22;4715;51.660;7.082;2023-10-19T01:02:33;11.80;99.90
5086;DHT22;4715;51.660;7.082;2023-10-19T01:05:04;11.80;99.90
5086;DHT22;4715;51.660;7.082;2023-10-19T01:07:27;11.80;99.90
5086;DHT22;4715;51.660;7.082;2023-10-19T01:09:50;11.90;99.90
5086;DHT22;4715;51.660;7.082;2023-10-19T01:12:15;11.90;99.90
5086;DHT22;4715;51.660;7.082;2023-10-19T01:15:12;11.90;99.90
5086;DHT22;4715;51.660;7.082;2023-10-19T01:17:37;11.90;99.90
5086;DHT22;4715;51.660;7.082;2023-10-19T01:20:03;11.90;99.90
5086;DHT22;4715;51.660;7.082;2023-10-19T01:22:32;11.90;99.90
5086;DHT22;4715;51.660;7.082;2023-10-19T01:24:57;11.90;99.90
5086;DHT22;4715;51.660;7.082;2023-10-19T01:27:19;12.00;99.90
5086;DHT22;4715;51.660;7.082;2023-10-19T01:29:41;12.00;99.90
5086;DHT22;4715;51.660;7.082;2023-10-19T01:32:04;12.00;99.90
5086;DHT22;4715;51.660;7.082;2023-10-19T01:34:29;12.00;99.90
5086;DHT22;4715;51.660;7.082;2023-10-19T01:36:51;12.00;99.90
5086;DHT22;4715;51.660;7.082;2023-10-19T01:39:11;12.00;99.90
5086;DHT22;4715;51.660;7.082;2023-10-19T01:41:35;12.00;99.90
5086;DHT22;4715;51.660;7.082;2023-10-19T01:43:57;12.00;99.90
5086;DHT22;4715;51.660;7.082;2023-10-19T01:46:25;12.00;99.90
5086;DHT22;4715;51.660;7.082;2023-10-19T01:48:51;12.00;99.90
5086;DHT22;4715;51.660;7.082;2023-10-19T01:51:16;12.10;99.90
5086;DHT22;4715;51.660;7.082;2023-10-19T01:53:37;12.10;99.90
5086;DHT22;4715;51.660;7.082;2023-10-19T01:56:03;12.10;99.90
5086;DHT22;4715;51.660;7.082;2023-10-19T01:58:27;12.10;99.90
5086;DHT22;4715;51.660;7.082;2023-10-19T02:00:51;12.10;99.90
5086;DHT22;4715;51.660;7.082;2023-10-19T02:03:15;12.20;99.90
5086;DHT22;4715;51.660;7.082;2023-10-19T02:05:38;12.20;99.90
5086;DHT22;4715;51.660;7.082;2023-10-19T02:08:02;12.20;99.90
5086;DHT22;4715;51.660;7.082;2023-10-19T02:10:24;12.20;99.90
5086;DHT22;4715;51.660;7.082;2023-10-19T02:12:47;12.20;99.90
5086;DHT22;4715;51.660;7.082;2023-10-19T02:15:11;12.20;99.90
5086;DHT22;4715;51.660;7.082;2023-10-19T02:17:34;12.30;99.90
5086;DHT22;4715;51.660;7.082;2023-10-19T02:19:55;12.30;99.90
5086;DHT22;4715;51.660;7.082;2023-10-19T02:22:17;12.30;99.90
5086;DHT22;4715;51.660;7.082;2023-10-19T02:24:38;12.30;99.90
5086;DHT22;4715;51.660;7.082;2023-10-19T02:27:01;12.30;99.90
5086;DHT22;4715;51.660;7.082;2023-10-19T02:29:22;12.40;99.90
5086;DHT22;4715;51.660;7.082;2023-10-19T02:31:47;12.40;99.90
5086;DHT22;4715;51.660;7.082;2023-10-19T02:34:11;12.40;99.90
5086;DHT22;4715;51.660;7.082;2023-10-19T02:36:35;12.40;99.90
5086;DHT22;4715;51.660;7.082;2023-10-19T02:38:59;12.40;99.90
5086;DHT22;4715;51.660;7.082;2023-10-19T02:41:21;12.40;99.90
5086;DHT22;4715;51.660;7.082;2023-10-19T02:43:42;12.50;99.90
5086;DHT22;4715;51.660;7.082;2023-10-19T02:46:07;12.50;99.90
5086;DHT22;4715;51.660;7.082;2023-10-19T02:48:29;12.60;99.90
5086;DHT22;4715;51.660;7.082;2023-10-19T02:50:52;12.60;99.90
5086;DHT22;4715;51.660;7.082;2023-10-19T02:53:12;12.70;99.90
5086;DHT22;4715;51.660;7.082;2023-10-19T02:55:34;12.70;99.90
5086;DHT22;4715;51.660;7.082;2023-10-19T02:57:55;12.80;99.90
5086;DHT22;4715;51.660;7.082;2023-10-19T03:00:19;12.80;99.90
5086;DHT22;4715;51.660;7.082;2023-10-19T03:02:40;12.80;99.90
5086;DHT22;4715;51.660;7.082;2023-10-19T03:05:06;12.80;99.90
5086;DHT22;4715;51.660;7.082;2023-10-19T03:07:34;12.90;99.90
5086;DHT22;4715;51.660;7.082;2023-10-19T03:09:56;12.90;99.90
5086;DHT22;4715;51.660;7.082;2023-10-19T03:12:18;13.00;99.90
5086;DHT22;4715;51.660;7.082;2023-10-19T03:14:40;13.00;99.90
5086;DHT22;4715;51.660;7.082;2023-10-19T03:17:02;13.10;99.90
5086;DHT22;4715;51.660;7.082;2023-10-19T03:19:24;13.10;99.90
5086;DHT22;4715;51.660;7.082;2023-10-19T03:21:47;13.20;99.90
5086;DHT22;4715;51.660;7.082;2023-10-19T03:24:11;13.20;99.90
5086;DHT22;4715;51.660;7.082;2023-10-19T03:26:33;13.30;99.90
5086;DHT22;4715;51.660;7.082;2023-10-19T03:28:57;13.40;99.90
5086;DHT22;4715;51.660;7.082;2023-10-19T03:31:24;13.40;99.90
5086;DHT22;4715;51.660;7.082;2023-10-19T03:33:47;13.40;99.90
5086;DHT22;4715;51.660;7.082;2023-10-19T03:36:14;13.50;99.90
5086;DHT22;4715;51.660;7.082;2023-10-19T03:38:37;13.60;99.90
5086;DHT22;4715;51.660;7.082;2023-10-19T03:41:01;13.60;99.90
5086;DHT22;4715;51.660;7.082;2023-10-19T03:43:27;13.60;99.90
5086;DHT22;4715;51.660;7.082;2023-10-19T03:45:50;13.70;99.90
5086;DHT22;4715;51.660;7.082;2023-10-19T03:48:13;13.70;99.90
5086;DHT22;4715;51.660;7.082;2023-10-19T03:50:36;13.80;99.90
5086;DHT22;4715;51.660;7.082;2023-10-19T03:53:00;13.80;99.90
5086;DHT22;4715;51.660;7.082;2023-10-19T03:55:23;13.80;99.90
5086;DHT22;4715;51.660;7.082;2023-10-19T03:57:45;13.90;99.90
5086;DHT22;4715;51.660;7.082;2023-10-19T04:00:12;13.90;99.90
5086;DHT22;4715;51.660;7.082;2023-10-19T04:02:36;13.90;99.90
5086;DHT22;4715;51.660;7.082;2023-10-19T04:04:58;13.90;99.90
5086;DHT22;4715;51.660;7.082;2023-10-19T04:07:22;13.90;99.90
5086;DHT22;4715;51.660;7.082;2023-10-19T04:09:46;13.90;99.90
5086;DHT22;4715;51.660;7.082;2023-10-19T04:12:21;13.90;99.90
5086;DHT22;4715;51.660;7.082;2023-10-19T04:14:44;14.00;99.90
5086;DHT22;4715;51.660;7.082;2023-10-19T04:17:07;14.00;99.90
5086;DHT22;4715;51.660;7.082;2023-10-19T04:19:32;14.00;99.90
5086;DHT22;4715;51.660;7.082;2023-10-19T04:21:54;14.00;99.90
5086;DHT22;4715;51.660;7.082;2023-10-19T04:24:16;14.00;99.90
5086;DHT22;4715;51.660;7.082;2023-10-19T04:26:40;14.00;99.90
5086;DHT22;4715;51.660;7.082;2023-10-19T04:29:05;14.00;99.90
5086;DHT22;4715;51.660;7.082;2023-10-19T04:31:31;14.00;99.90
5086;DHT22;4715;51.660;7.082;2023-10-19T04:33:53;13.90;99.90
5086;DHT22;4715;51.660;7.082;2023-10-19T04:36:15;14.00;99.90
5086;DHT22;4715;51.660;7.082;2023-10-19T04:38:40;14.00;99.90
5086;DHT22;4715;51.660;7.082;2023-10-19T04:41:06;14.00;99.90
5086;DHT22;4715;51.660;7.082;2023-10-19T04:43:30;14.00;99.90
5086;DHT22;4715;51.660;7.082;2023-10-19T04:45:53;14.00;99.90
5086;DHT22;4715;51.660;7.082;2023-10-19T04:48:16;14.00;99.90
5086;DHT22;4715;51.660;7.082;2023-10-19T04:50:38;14.00;99.90
5086;DHT22;4715;51.660;7.082;2023-10-19T04:53:00;14.00;99.90
5086;DHT22;4715;51.660;7.082;2023-10-19T04:55:22;14.00;99.90
5086;DHT22;4715;51.660;7.082;2023-10-19T04:57:44;14.00;99.90
5086;DHT22;4715;51.660;7.082;2023-10-19T05:00:07;14.00;99.90
5086;DHT22;4715;51.660;7.082;2023-10-19T05:02:35;14.00;99.90
5086;DHT22;4715;51.660;7.082;2023-10-19T05:04:56;14.00;99.90
5086;DHT22;4715;51.660;7.082;2023-10-19T05:07:22;14.00;99.90
5086;DHT22;4715;51.660;7.082;2023-10-19T05:09:47;14.00;99.90
5086;DHT22;4715;51.660;7.082;2023-10-19T05:12:10;14.00;99.90
5086;DHT22;4715;51.660;7.082;2023-10-19T05:14:32;14.00;99.90
5086;DHT22;4715;51.660;7.082;2023-10-19T05:16:58;14.10;99.90
5086;DHT22;4715;51.660;7.082;2023-10-19T05:19:22;14.10;99.90
5086;DHT22;4715;51.660;7.082;2023-10-19T05:21:44;14.10;99.90
5086;DHT22;4715;51.660;7.082;2023-10-19T05:24:09;14.10;99.90
5086;DHT22;4715;51.660;7.082;2023-10-19T05:26:33;14.10;99.90
5086;DHT22;4715;51.660;7.082;2023-10-19T05:28:55;14.00;99.90
5086;DHT22;4715;51.660;7.082;2023-10-19T05:31:17;14.00;99.90
5086;DHT22;4715;51.660;7.082;2023-10-19T05:33:39;14.10;99.90
5086;DHT22;4715;51.660;7.082;2023-10-19T05:36:03;14.10;99.90
5086;DHT22;4715;51.660;7.082;2023-10-19T05:38:25;14.10;99.90
5086;DHT22;4715;51.660;7.082;2023-10-19T05:40:48;14.10;99.90
5086;DHT22;4715;51.660;7.082;2023-10-19T05:43:10;14.10;99.90
5086;DHT22;4715;51.660;7.082;2023-10-19T05:45:34;14.10;99.90
5086;DHT22;4715;51.660;7.082;2023-10-19T05:47:57;14.10;99.90
5086;DHT22;4715;51.660;7.082;2023-10-19T05:50:19;14.10;99.90
5086;DHT22;4715;51.660;7.082;2023-10-19T05:52:43;14.10;99.90
5086;DHT22;4715;51.660;7.082;2023-10-19T05:55:06;14.20;99.90
5086;DHT22;4715;51.660;7.082;2023-10-19T05:57:29;14.20;99.90
5086;DHT22;4715;51.660;7.082;2023-10-19T05:59:51;14.20;99.90
5086;DHT22;4715;51.660;7.082;2023-10-19T06:02:15;14.20;99.90
5086;DHT22;4715;51.660;7.082;2023-10-19T06:04:38;14.20;99.90
5086;DHT22;4715;51.660;7.082;2023-10-19T06:07:02;14.20;99.90
5086;DHT22;4715;51.660;7.082;2023-10-19T06:09:33;14.20;99.90
5086;DHT22;4715;51.660;7.082;2023-10-19T06:11:57;14.20;99.90
5086;DHT22;4715;51.660;7.082;2023-10-19T06:14:19;14.20;99.90
5086;DHT22;4715;51.660;7.082;2023-10-19T06:16:42;14.20;99.90
5086;DHT22;4715;51.660;7.082;2023-10-19T06:19:04;14.20;99.90
5086;DHT22;4715;51.660;7.082;2023-10-19T06:21:26;14.20;99.90
5086;DHT22;4715;51.660;7.082;2023-10-19T06:23:51;14.30;99.90
5086;DHT22;4715;51.660;7.082;2023-10-19T06:26:15;14.20;99.90
5086;DHT22;4715;51.660;7.082;2023-10-19T06:28:37;14.20;99.90
5086;DHT22;4715;51.660;7.082;2023-10-19T06:31:01;14.20;99.90
5086;DHT22;4715;51.660;7.082;2023-10-19T06:33:23;14.20;99.90
5086;DHT22;4715;51.660;7.082;2023-10-19T06:35:45;14.20;99.90
5086;DHT22;4715;51.660;7.082;2023-10-19T06:38:07;14.20;99.90
5086;DHT22;4715;51.660;7.082;2023-10-19T06:40:34;14.20;99.90
5086;DHT22;4715;51.660;7.082;2023-10-19T06:42:59;14.30;99.90
5086;DHT22;4715;51.660;7.082;2023-10-19T06:45:24;14.30;99.90
5086;DHT22;4715;51.660;7.082;2023-10-19T06:47:48;14.30;99.90
5086;DHT22;4715;51.660;7.082;2023-10-19T06:50:11;14.30;99.90
5086;DHT22;4715;51.660;7.082;2023-10-19T06:52:38;14.40;99.90
5086;DHT22;4715;51.660;7.082;2023-10-19T06:55:04;14.30;99.90
5086;DHT22;4715;51.660;7.082;2023-10-19T06:57:28;14.30;99.90
5086;DHT22;4715;51.660;7.082;2023-10-19T06:59:53;14.40;99.90
5086;DHT22;4715;51.660;7.082;2023-10-19T07:02:17;14.40;99.90
5086;DHT22;4715;51.660;7.082;2023-10-19T07:04:41;14.40;99.90
5086;DHT22;4715;51.660;7.082;2023-10-19T07:07:03;14.40;99.90
5086;DHT22;4715;51.660;7.082;2023-10-19T07:09:25;14.50;99.90
5086;DHT22;4715;51.660;7.082;2023-10-19T07:11:50;14.40;99.90
5086;DHT22;4715;51.660;7.082;2023-10-19T07:14:15;14.40;99.90
5086;DHT22;4715;51.660;7.082;2023-10-19T07:16:39;14.50;99.90
5086;DHT22;4715;51.660;7.082;2023-10-19T07:19:01;14.50;99.90
5086;DHT22;4715;51.660;7.082;2023-10-19T07:21:23;14.50;99.90
5086;DHT22;4715;51.660;7.082;2023-10-19T07:23:45;14.50;99.90
5086;DHT22;4715;51.660;7.082;2023-10-19T07:26:09;14.50;99.90
5086;DHT22;4715;51.660;7.082;2023-10-19T07:28:32;14.50;99.90
5086;DHT22;4715;51.660;7.082;2023-10-19T07:30:55;14.50;99.90
5086;DHT22;4715;51.660;7.082;2023-10-19T07:33:21;14.50;99.90
5086;DHT22;4715;51.660;7.082;2023-10-19T07:35:44;14.60;99.90
5086;DHT22;4715;51.660;7.082;2023-10-19T07:38:07;14.60;99.90
5086;DHT22;4715;51.660;7.082;2023-10-19T07:40:29;14.60;99.90
5086;DHT22;4715;51.660;7.082;2023-10-19T07:42:51;14.60;99.90
5086;DHT22;4715;51.660;7.082;2023-10-19T07:45:17;14.60;99.90
5086;DHT22;4715;51.660;7.082;2023-10-19T07:47:39;14.60;99.90
5086;DHT22;4715;51.660;7.082;2023-10-19T07:50:04;14.60;99.90
5086;DHT22;4715;51.660;7.082;2023-10-19T07:52:26;14.60;99.90
5086;DHT22;4715;51.660;7.082;2023-10-19T07:54:49;14.60;99.90
5086;DHT22;4715;51.660;7.082;2023-10-19T07:57:11;14.70;99.90
5086;DHT22;4715;51.660;7.082;2023-10-19T07:59:33;14.70;99.90
5086;DHT22;4715;51.660;7.082;2023-10-19T08:01:56;14.70;99.90
5086;DHT22;4715;51.660;7.082;2023-10-19T08:04:22;14.70;99.90
5086;DHT22;4715;51.660;7.082;2023-10-19T08:06:47;14.70;99.90
5086;DHT22;4715;51.660;7.082;2023-10-19T08:09:09;14.70;99.90
5086;DHT22;4715;51.660;7.082;2023-10-19T08:11:32;14.70;99.90
5086;DHT22;4715;51.660;7.082;2023-10-19T08:13:56;14.80;99.90
5086;DHT22;4715;51.660;7.082;2023-10-19T08:16:19;14.80;99.90
5086;DHT22;4715;51.660;7.082;2023-10-19T08:18:41;14.80;99.90
5086;DHT22;4715;51.660;7.082;2023-10-19T08:21:03;14.80;99.90
5086;DHT22;4715;51.660;7.082;2023-10-19T08:23:26;14.90;99.90
5086;DHT22;4715;51.660;7.082;2023-10-19T08:25:49;14.90;99.90
5086;DHT22;4715;51.660;7.082;2023-10-19T08:28:13;15.00;99.90
5086;DHT22;4715;51.660;7.082;2023-10-19T08:30:37;15.00;99.90
5086;DHT22;4715;51.660;7.082;2023-10-19T08:33:03;15.00;99.90
5086;DHT22;4715;51.660;7.082;2023-10-19T08:35:27;15.10;99.90
5086;DHT22;4715;51.660;7.082;2023-10-19T08:37:51;15.10;99.90
5086;DHT22;4715;51.660;7.082;2023-10-19T08:40:19;15.20;99.90
5086;DHT22;4715;51.660;7.082;2023-10-19T08:42:45;15.20;99.90
5086;DHT22;4715;51.660;7.082;2023-10-19T08:45:11;15.30;99.90
5086;DHT22;4715;51.660;7.082;2023-10-19T08:47:34;15.30;99.90
5086;DHT22;4715;51.660;7.082;2023-10-19T08:49:58;15.30;99.90
5086;DHT22;4715;51.660;7.082;2023-10-19T08:52:21;15.40;99.90
5086;DHT22;4715;51.660;7.082;2023-10-19T08:54:49;15.40;99.90
5086;DHT22;4715;51.660;7.082;2023-10-19T08:57:12;15.40;99.90
5086;DHT22;4715;51.660;7.082;2023-10-19T08:59:37;15.50;99.90
5086;DHT22;4715;51.660;7.082;2023-10-19T09:02:03;15.50;99.90
5086;DHT22;4715;51.660;7.082;2023-10-19T09:04:27;15.60;99.90
5086;DHT22;4715;51.660;7.082;2023-10-19T09:06:49;15.60;99.90
5086;DHT22;4715;51.660;7.082;2023-10-19T09:09:18;15.60;99.90
5086;DHT22;4715;51.660;7.082;2023-10-19T09:11:42;15.70;99.90
5086;DHT22;4715;51.660;7.082;2023-10-19T09:14:05;15.70;99.90
5086;DHT22;4715;51.660;7.082;2023-10-19T09:16:33;15.80;99.90
5086;DHT22;4715;51.660;7.082;2023-10-19T09:18:57;15.90;99.90
5086;DHT22;4715;51.660;7.082;2023-10-19T09:21:20;15.90;99.90
5086;DHT22;4715;51.660;7.082;2023-10-19T09:23:46;16.00;99.90
5086;DHT22;4715;51.660;7.082;2023-10-19T09:26:08;16.00;99.90
5086;DHT22;4715;51.660;7.082;2023-10-19T09:28:30;16.10;99.90
5086;DHT22;4715;51.660;7.082;2023-10-19T09:30:59;16.20;99.90
5086;DHT22;4715;51.660;7.082;2023-10-19T09:33:22;16.20;99.90
5086;DHT22;4715;51.660;7.082;2023-10-19T09:35:47;16.20;99.90
5086;DHT22;4715;51.660;7.082;2023-10-19T09:38:09;16.30;99.90
5086;DHT22;4715;51.660;7.082;2023-10-19T09:40:32;16.30;99.90
5086;DHT22;4715;51.660;7.082;2023-10-19T09:42:56;16.30;99.90
5086;DHT22;4715;51.660;7.082;2023-10-19T09:45:20;16.30;99.90
5086;DHT22;4715;51.660;7.082;2023-10-19T09:47:50;16.30;99.90
5086;DHT22;4715;51.660;7.082;2023-10-19T09:50:12;16.40;99.90
5086;DHT22;4715;51.660;7.082;2023-10-19T09:52:35;16.40;99.90
5086;DHT22;4715;51.660;7.082;2023-10-19T09:55:07;16.40;99.90
5086;DHT22;4715;51.660;7.082;2023-10-19T09:57:36;16.40;99.90
5086;DHT22;4715;51.660;7.082;2023-10-19T10:00:03;16.50;99.90
5086;DHT22;4715;51.660;7.082;2023-10-19T10:02:32;16.50;99.90
5086;DHT22;4715;51.660;7.082;2023-10-19T10:04:56;16.50;99.90
5086;DHT22;4715;51.660;7.082;2023-10-19T10:07:18;16.50;99.90
5086;DHT22;4715;51.660;7.082;2023-10-19T10:09:45;16.50;99.90
5086;DHT22;4715;51.660;7.082;2023-10-19T10:12:17;16.60;99.90
5086;DHT22;4715;51.660;7.082;2023-10-19T10:14:54;16.70;99.90
5086;DHT22;4715;51.660;7.082;2023-10-19T10:17:18;16.80;99.90
5086;DHT22;4715;51.660;7.082;2023-10-19T10:19:40;16.90;99.90
5086;DHT22;4715;51.660;7.082;2023-10-19T10:22:10;17.10;99.90
5086;DHT22;4715;51.660;7.082;2023-10-19T10:24:34;17.30;99.90
5086;DHT22;4715;51.660;7.082;2023-10-19T10:27:00;17.40;99.90
5086;DHT22;4715;51.660;7.082;2023-10-19T10:29:23;17.50;99.90
5086;DHT22;4715;51.660;7.082;2023-10-19T10:31:48;17.50;99.90
5086;DHT22;4715;51.660;7.082;2023-10-19T10:34:11;17.60;99.90
5086;DHT22;4715;51.660;7.082;2023-10-19T10:36:59;17.60;99.90
5086;DHT22;4715;51.660;7.082;2023-10-19T10:39:25;17.70;99.90
5086;DHT22;4715;51.660;7.082;2023-10-19T10:41:55;17.70;99.90
5086;DHT22;4715;51.660;7.082;2023-10-19T10:44:17;17.70;99.90
5086;DHT22;4715;51.660;7.082;2023-10-19T10:46:40;17.70;99.90
5086;DHT22;4715;51.660;7.082;2023-10-19T10:49:08;17.70;99.90
5086;DHT22;4715;51.660;7.082;2023-10-19T10:51:31;17.70;99.90
5086;DHT22;4715;51.660;7.082;2023-10-19T10:53:54;17.70;99.90
5086;DHT22;4715;51.660;7.082;2023-10-19T10:56:18;17.60;99.90
5086;DHT22;4715;51.660;7.082;2023-10-19T10:58:40;17.60;99.90
5086;DHT22;4715;51.660;7.082;2023-10-19T11:01:04;17.60;99.90
5086;DHT22;4715;51.660;7.082;2023-10-19T11:03:27;17.60;99.90
5086;DHT22;4715;51.660;7.082;2023-10-19T11:06:02;17.60;99.90
5086;DHT22;4715;51.660;7.082;2023-10-19T11:08:24;17.70;99.90
5086;DHT22;4715;51.660;7.082;2023-10-19T11:10:47;17.70;99.90
5086;DHT22;4715;51.660;7.082;2023-10-19T11:13:12;17.80;99.90
5086;DHT22;4715;51.660;7.082;2023-10-19T11:15:38;17.90;99.90
5086;DHT22;4715;51.660;7.082;2023-10-19T11:18:03;18.00;99.90
5086;DHT22;4715;51.660;7.082;2023-10-19T11:20:25;18.00;99.90
5086;DHT22;4715;51.660;7.082;2023-10-19T11:22:48;18.10;99.90
5086;DHT22;4715;51.660;7.082;2023-10-19T11:25:21;18.10;99.90
5086;DHT22;4715;51.660;7.082;2023-10-19T11:27:43;18.30;99.90
5086;DHT22;4715;51.660;7.082;2023-10-19T11:30:11;18.60;99.90
5086;DHT22;4715;51.660;7.082;2023-10-19T11:32:38;18.90;99.90
5086;DHT22;4715;51.660;7.082;2023-10-19T11:35:02;19.10;99.90
5086;DHT22;4715;51.660;7.082;2023-10-19T11:37:24;19.20;99.90
5086;DHT22;4715;51.660;7.082;2023-10-19T11:39:46;19.20;99.90
5086;DHT22;4715;51.660;7.082;2023-10-19T11:42:10;19.30;99.90
5086;DHT22;4715;51.660;7.082;2023-10-19T11:44:33;19.20;99.90
5086;DHT22;4715;51.660;7.082;2023-10-19T11:46:58;19.10;99.90
5086;DHT22;4715;51.660;7.082;2023-10-19T11:49:21;19.10;99.90
5086;DHT22;4715;51.660;7.082;2023-10-19T11:51:43;19.20;99.90
5086;DHT22;4715;51.660;7.082;2023-10-19T11:54:07;19.40;99.90
5086;DHT22;4715;51.660;7.082;2023-10-19T11:56:28;19.60;99.90
5086;DHT22;4715;51.660;7.082;2023-10-19T11:58:51;19.80;99.90
5086;DHT22;4715;51.660;7.082;2023-10-19T12:01:13;20.00;99.90
5086;DHT22;4715;51.660;7.082;2023-10-19T12:03:39;20.20;99.90
5086;DHT22;4715;51.660;7.082;2023-10-19T12:06:01;20.30;99.90
5086;DHT22;4715;51.660;7.082;2023-10-19T12:08:26;20.50;99.90
5086;DHT22;4715;51.660;7.082;2023-10-19T12:10:50;20.50;99.90
5086;DHT22;4715;51.660;7.082;2023-10-19T12:13:14;20.50;99.90
5086;DHT22;4715;51.660;7.082;2023-10-19T12:15:37;20.50;99.90
5086;DHT22;4715;51.660;7.082;2023-10-19T12:17:59;20.50;99.90
5086;DHT22;4715;51.660;7.082;2023-10-19T12:20:23;20.50;99.90
5086;DHT22;4715;51.660;7.082;2023-10-19T12:22:45;20.50;99.90
5086;DHT22;4715;51.660;7.082;2023-10-19T12:25:12;20.40;99.90
5086;DHT22;4715;51.660;7.082;2023-10-19T12:27:36;20.30;99.90
5086;DHT22;4715;51.660;7.082;2023-10-19T12:29:58;20.20;99.90
5086;DHT22;4715;51.660;7.082;2023-10-19T12:32:25;20.00;99.90
5086;DHT22;4715;51.660;7.082;2023-10-19T12:34:47;19.90;99.90
5086;DHT22;4715;51.660;7.082;2023-10-19T12:37:20;19.70;99.90
5086;DHT22;4715;51.660;7.082;2023-10-19T12:39:44;19.60;99.90
5086;DHT22;4715;51.660;7.082;2023-10-19T12:42:09;19.40;99.90
5086;DHT22;4715;51.660;7.082;2023-10-19T12:44:36;19.30;99.90
5086;DHT22;4715;51.660;7.082;2023-10-19T12:47:01;19.20;99.90
5086;DHT22;4715;51.660;7.082;2023-10-19T12:49:25;19.20;99.90
5086;DHT22;4715;51.660;7.082;2023-10-19T12:51:51;19.10;99.90
5086;DHT22;4715;51.660;7.082;2023-10-19T12:54:16;19.10;99.90
5086;DHT22;4715;51.660;7.082;2023-10-19T12:56:38;19.00;99.90
5086;DHT22;4715;51.660;7.082;2023-10-19T12:59:01;19.00;99.90
5086;DHT22;4715;51.660;7.082;2023-10-19T13:01:23;18.90;99.90
5086;DHT22;4715;51.660;7.082;2023-10-19T13:03:48;18.80;99.90
5086;DHT22;4715;51.660;7.082;2023-10-19T13:06:15;18.80;99.90
5086;DHT22;4715;51.660;7.082;2023-10-19T13:08:37;18.70;99.90
5086;DHT22;4715;51.660;7.082;2023-10-19T13:11:02;18.70;99.90
5086;DHT22;4715;51.660;7.082;2023-10-19T13:13:25;18.70;99.90
5086;DHT22;4715;51.660;7.082;2023-10-19T13:15:48;18.60;99.90
5086;DHT22;4715;51.660;7.082;2023-10-19T13:18:10;18.60;99.90
5086;DHT22;4715;51.660;7.082;2023-10-19T13:20:35;18.50;99.90
5086;DHT22;4715;51.660;7.082;2023-10-19T13:22:57;18.50;99.90
5086;DHT22;4715;51.660;7.082;2023-10-19T13:25:20;18.50;99.90
5086;DHT22;4715;51.660;7.082;2023-10-19T13:28:00;18.50;99.90
5086;DHT22;4715;51.660;7.082;2023-10-19T13:30:23;18.50;99.90
5086;DHT22;4715;51.660;7.082;2023-10-19T13:32:48;18.40;99.90
5086;DHT22;4715;51.660;7.082;2023-10-19T13:35:10;18.40;99.90
5086;DHT22;4715;51.660;7.082;2023-10-19T13:37:34;18.40;99.90
5086;DHT22;4715;51.660;7.082;2023-10-19T13:39:57;18.30;99.90
5086;DHT22;4715;51.660;7.082;2023-10-19T13:42:20;18.40;99.90
5086;DHT22;4715;51.660;7.082;2023-10-19T13:44:44;18.30;99.90
5086;DHT22;4715;51.660;7.082;2023-10-19T13:47:06;18.30;99.90
5086;DHT22;4715;51.660;7.082;2023-10-19T13:49:29;18.20;99.90
5086;DHT22;4715;51.660;7.082;2023-10-19T13:51:51;18.20;99.90
5086;DHT22;4715;51.660;7.082;2023-10-19T13:54:13;18.20;99.90
5086;DHT22;4715;51.660;7.082;2023-10-19T13:56:39;18.20;99.90
5086;DHT22;4715;51.660;7.082;2023-10-19T13:59:02;18.20;99.90
5086;DHT22;4715;51.660;7.082;2023-10-19T14:01:29;18.20;99.90
5086;DHT22;4715;51.660;7.082;2023-10-19T14:03:54;18.20;99.90
5086;DHT22;4715;51.660;7.082;2023-10-19T14:06:25;18.10;99.90
5086;DHT22;4715;51.660;7.082;2023-10-19T14:08:58;18.10;99.90
5086;DHT22;4715;51.660;7.082;2023-10-19T14:11:29;18.10;99.90
5086;DHT22;4715;51.660;7.082;2023-10-19T14:13:51;18.10;99.90
5086;DHT22;4715;51.660;7.082;2023-10-19T14:16:14;18.10;99.90
5086;DHT22;4715;51.660;7.082;2023-10-19T14:18:54;18.10;99.90
5086;DHT22;4715;51.660;7.082;2023-10-19T14:21:18;18.00;99.90
5086;DHT22;4715;51.660;7.082;2023-10-19T14:23:40;18.00;99.90
5086;DHT22;4715;51.660;7.082;2023-10-19T14:26:07;17.90;99.90
5086;DHT22;4715;51.660;7.082;2023-10-19T14:28:31;17.90;99.90
5086;DHT22;4715;51.660;7.082;2023-10-19T14:30:56;17.80;99.90
5086;DHT22;4715;51.660;7.082;2023-10-19T14:33:23;17.80;99.90
5086;DHT22;4715;51.660;7.082;2023-10-19T14:36:04;17.80;99.90
5086;DHT22;4715;51.660;7.082;2023-10-19T14:38:27;17.80;99.90
5086;DHT22;4715;51.660;7.082;2023-10-19T14:40:51;17.80;99.90
5086;DHT22;4715;51.660;7.082;2023-10-19T14:43:17;17.80;99.90
5086;DHT22;4715;51.660;7.082;2023-10-19T14:45:40;17.80;99.90
5086;DHT22;4715;51.660;7.082;2023-10-19T14:48:07;17.70;99.90
5086;DHT22;4715;51.660;7.082;2023-10-19T14:50:35;17.70;99.90
5086;DHT22;4715;51.660;7.082;2023-10-19T14:53:00;17.70;99.90
5086;DHT22;4715;51.660;7.082;2023-10-19T14:55:36;17.70;99.90
5086;DHT22;4715;51.660;7.082;2023-10-19T14:58:00;17.70;99.90
5086;DHT22;4715;51.660;7.082;2023-10-19T15:00:24;17.70;99.90
5086;DHT22;4715;51.660;7.082;2023-10-19T15:02:55;17.70;99.90
5086;DHT22;4715;51.660;7.082;2023-10-19T15:05:18;17.70;99.90
5086;DHT22;4715;51.660;7.082;2023-10-19T15:07:50;17.70;99.90
5086;DHT22;4715;51.660;7.082;2023-10-19T15:10:23;17.70;99.90
5086;DHT22;4715;51.660;7.082;2023-10-19T15:12:46;17.60;99.90
5086;DHT22;4715;51.660;7.082;2023-10-19T15:15:14;17.60;99.90
5086;DHT22;4715;51.660;7.082;2023-10-19T15:17:39;17.60;99.90
5086;DHT22;4715;51.660;7.082;2023-10-19T15:20:12;17.60;99.90
5086;DHT22;4715;51.660;7.082;2023-10-19T15:22:36;17.50;99.90
5086;DHT22;4715;51.660;7.082;2023-10-19T15:24:58;17.50;99.90
5086;DHT22;4715;51.660;7.082;2023-10-19T15:27:22;17.50;99.90
5086;DHT22;4715;51.660;7.082;2023-10-19T15:29:44;17.50;99.90
5086;DHT22;4715;51.660;7.082;2023-10-19T15:32:06;17.50;99.90
5086;DHT22;4715;51.660;7.082;2023-10-19T15:34:28;17.50;99.90
5086;DHT22;4715;51.660;7.082;2023-10-19T15:36:55;17.50;99.90
5086;DHT22;4715;51.660;7.082;2023-10-19T15:39:21;17.40;99.90
5086;DHT22;4715;51.660;7.082;2023-10-19T15:41:44;17.40;99.90
5086;DHT22;4715;51.660;7.082;2023-10-19T15:44:09;17.40;99.90